עמוד ראשי
METAR-TAF:

METAR-TAF

שדות תעופה :

Terrace, קולומביה הבריטית, קנדה

קו רוחב: 54-28N, קו אורך: 128-35W, גובה: 217מטר

תצפית מזג אוויר נוכחית

הדו"ח נערך לפני 1 שעות ו 3דקות, בשעה 09:00 UTC
רוח 16קשר מכיוון דרום
טמפרטורת 11 צלסיוס
לחות 87%
לחץ 1015 hPa
ראות: 32.2קילומטר
מעט עננים בגובה 2000רגל
מעונן בגובה 6000רגל
גשם קל

METAR: CYXT 240900Z 17016KT 20SM -RA FEW020 OVC060 11/09 A2997 RMK SC1SC7 SLP155

זמן: 03:03 (10:03 UTC)

תחזית

הדו"ח נערך לפני 3 שעות ו 23דקות, בשעה 06:40 UTC
תחזית בתוקף מ 24 ב 07 UTC עד 24 ב 19 UTC
רוח 12קשר מכיוון דרום עם משבים עד 22קשר
ראות: 10קילומטר
עננים פזורים בגובה 2000רגל
עננים בינוניים בגובה 5000רגל
זמנית מ -
24 ב 07 UTC עד 24 ב 19 UTC
ראות: 10קילומטר
עננים בינוניים בגובה 2000רגל
מעונן בגובה 5000רגל
ממטרי גשם קלים

TAF: CYXT 240640Z 2407/2419 18012G22KT P6SM SCT020 BKN050 TEMPO 2407/2419 P6SM -SHRA BKN020 OVC050 RMK NXT FCST BY 241300Z

תצפיות ותחזיות מזג אוויר לגבי יותר מ- 4,000 שדות תעופה ברחבי העולם. דוחות METAR ו- TAF.

התחנות הזמינות מסומנות בנקודות צהובות ואדומות על גבי המפה.

העבר את העכבר לנקודה הצבעונית על מנת לראות את שם התחנה.

לאחר מכן, לחץ כדי לראות את תוכן ואת תחזיות מזג האוויר.

כדי לשנות את המפה: לחץ על הכפתורים הירוקים עם הפלוס השחור כדי להתקרב; על הכפתור הירוק עם המקף כדי להתרחק; או בחיצים הירוקים למפות סמוכות.


METAR-TAF: